createdAt,value
2022-11-02T00:01:42.575Z,4.27
2022-11-02T00:04:12.897Z,2.20
2022-11-02T00:06:42.130Z,4.03
2022-11-02T00:09:10.946Z,3.60
2022-11-02T00:11:45.606Z,2.73
2022-11-02T00:14:15.650Z,2.97
2022-11-02T00:16:44.419Z,4.27
2022-11-02T00:19:13.347Z,3.03
2022-11-02T00:21:42.851Z,3.30
2022-11-02T00:24:15.182Z,2.83
2022-11-02T00:26:43.893Z,3.60
2022-11-02T00:29:32.710Z,3.27
2022-11-02T00:32:03.134Z,3.53
2022-11-02T00:34:35.166Z,6.17
2022-11-02T00:37:03.856Z,3.27
2022-11-02T00:39:32.444Z,3.73
2022-11-02T00:42:00.906Z,4.43
2022-11-02T00:44:31.396Z,2.27
2022-11-02T00:46:59.882Z,2.43
2022-11-02T00:49:28.796Z,3.97
2022-11-02T00:51:57.440Z,3.60
2022-11-02T00:54:28.664Z,3.93
2022-11-02T00:56:57.775Z,4.63
2022-11-02T00:59:26.551Z,3.67
2022-11-02T01:01:59.301Z,3.70
2022-11-02T01:04:29.245Z,3.60
2022-11-02T01:06:57.694Z,3.60
2022-11-02T01:09:26.466Z,2.23
2022-11-02T01:11:55.404Z,1.70
2022-11-02T01:14:26.498Z,4.17
2022-11-02T01:16:57.895Z,3.67
2022-11-02T01:19:28.131Z,2.30
2022-11-02T01:21:58.634Z,3.83
2022-11-02T01:24:27.144Z,3.50
2022-11-02T01:26:55.731Z,2.80
2022-11-02T01:29:25.139Z,3.80
2022-11-02T01:31:53.953Z,3.83
2022-11-02T01:34:22.822Z,2.67
2022-11-02T01:36:52.919Z,5.43
2022-11-02T01:39:21.431Z,2.87
2022-11-02T01:41:53.046Z,5.83
2022-11-02T01:44:29.493Z,4.47
2022-11-02T01:47:02.064Z,5.73
2022-11-02T01:49:33.785Z,5.70
2022-11-02T01:52:08.270Z,4.60
2022-11-02T01:54:42.879Z,5.83
2022-11-02T01:57:13.574Z,5.30
2022-11-02T01:59:47.611Z,5.20
2022-11-02T02:02:22.282Z,6.20
2022-11-02T02:04:54.819Z,4.17
2022-11-02T02:07:28.577Z,7.37
2022-11-02T02:09:57.247Z,3.80
2022-11-02T02:12:26.668Z,3.27
2022-11-02T02:14:58.573Z,4.97
2022-11-02T02:17:36.206Z,3.67
2022-11-02T02:20:12.920Z,4.03
2022-11-02T02:23:05.511Z,4.67
2022-11-02T02:26:01.184Z,4.53
2022-11-02T02:28:39.017Z,4.80
2022-11-02T02:31:13.962Z,5.00
2022-11-02T02:33:49.520Z,4.33
2022-11-02T02:36:25.070Z,4.73
2022-11-02T02:39:02.031Z,3.87
2022-11-02T02:41:38.992Z,4.90
2022-11-02T02:44:12.068Z,7.93
2022-11-02T02:46:46.625Z,4.03
2022-11-02T02:49:23.851Z,5.83
2022-11-02T02:51:54.469Z,4.27
2022-11-02T02:54:27.400Z,9.23
2022-11-02T02:56:59.794Z,3.20
2022-11-02T02:59:33.487Z,5.43
2022-11-02T03:02:06.752Z,5.57
2022-11-02T03:04:35.814Z,5.43
2022-11-02T03:07:05.098Z,3.17
2022-11-02T03:09:41.342Z,6.83
2022-11-02T03:12:23.296Z,6.60
2022-11-02T03:15:05.117Z,3.47
2022-11-02T03:17:41.578Z,5.37
2022-11-02T03:20:20.089Z,3.43
2022-11-02T03:22:54.289Z,3.00
2022-11-02T03:25:30.086Z,3.97
2022-11-02T03:28:04.651Z,4.17
2022-11-02T03:30:41.282Z,4.23
2022-11-02T03:36:38.119Z,6.00
2022-11-02T03:39:09.518Z,4.17
2022-11-02T03:41:43.256Z,3.20
2022-11-02T03:44:15.326Z,2.50
2022-11-02T03:46:45.936Z,5.33
2022-11-02T03:49:19.561Z,6.33
2022-11-02T03:51:51.119Z,3.00
2022-11-02T03:54:27.435Z,5.20
2022-11-02T03:57:00.833Z,3.70
2022-11-02T03:59:38.170Z,4.53
2022-11-02T04:02:20.134Z,6.60
2022-11-02T04:04:54.080Z,3.33
2022-11-02T04:07:52.422Z,5.23
2022-11-02T04:10:26.269Z,5.73
2022-11-02T04:13:12.484Z,4.93
2022-11-02T04:15:41.703Z,3.13
2022-11-02T04:18:29.287Z,5.20
2022-11-02T04:20:57.970Z,4.90
2022-11-02T04:23:45.922Z,5.87
2022-11-02T04:26:14.661Z,5.47
2022-11-02T04:28:46.361Z,4.27
2022-11-02T04:31:15.574Z,6.37
2022-11-02T04:33:44.200Z,3.50
2022-11-02T04:36:17.802Z,3.33
2022-11-02T04:38:51.037Z,3.90
2022-11-02T04:41:45.573Z,6.13
2022-11-02T04:44:28.963Z,4.70
2022-11-02T04:47:02.825Z,3.17
2022-11-02T04:49:35.509Z,5.50
2022-11-02T04:52:06.484Z,3.97
2022-11-02T04:54:36.797Z,4.67
2022-11-02T04:57:09.372Z,2.90
2022-11-02T04:59:38.180Z,5.23
2022-11-02T05:02:08.212Z,3.23
2022-11-02T05:04:38.775Z,4.93
2022-11-02T05:07:08.859Z,4.63
2022-11-02T05:09:38.572Z,6.90
2022-11-02T05:12:07.969Z,6.17
2022-11-02T05:14:36.915Z,4.73
2022-11-02T05:17:07.810Z,8.30
2022-11-02T05:19:39.271Z,5.83
2022-11-02T05:22:07.626Z,6.97
2022-11-02T05:24:40.883Z,6.47
2022-11-02T05:27:11.787Z,3.77
2022-11-02T05:29:42.972Z,5.73
2022-11-02T05:32:12.150Z,7.20
2022-11-02T05:34:43.080Z,8.07
2022-11-02T05:37:12.490Z,7.43
2022-11-02T05:39:43.143Z,4.90
2022-11-02T05:42:17.143Z,8.17
2022-11-02T05:44:49.996Z,7.60
2022-11-02T05:47:19.116Z,8.00
2022-11-02T05:49:49.170Z,8.80
2022-11-02T05:52:17.849Z,9.23
2022-11-02T05:54:46.446Z,9.23
2022-11-02T05:57:17.305Z,9.93
2022-11-02T05:59:49.195Z,10.03
2022-11-02T06:02:21.947Z,6.77
2022-11-02T06:04:53.755Z,8.87
2022-11-02T06:07:25.135Z,10.20
2022-11-02T06:09:53.715Z,8.93
2022-11-02T06:12:25.365Z,8.47
2022-11-02T06:14:53.731Z,7.10
2022-11-02T06:17:22.902Z,6.53
2022-11-02T06:19:58.336Z,15.20
2022-11-02T06:22:29.782Z,8.67
2022-11-02T06:24:58.471Z,8.60
2022-11-02T06:27:34.042Z,8.73
2022-11-02T06:30:02.938Z,7.67
2022-11-02T06:32:41.210Z,8.80
2022-11-02T06:35:14.887Z,8.10
2022-11-02T06:37:44.688Z,7.20
2022-11-02T06:40:18.357Z,7.13
2022-11-02T06:43:16.979Z,7.13
2022-11-02T06:45:52.552Z,7.70
2022-11-02T06:48:41.395Z,9.50
2022-11-02T06:51:32.690Z,7.13
2022-11-02T06:55:40.331Z,9.90
2022-11-02T06:58:17.191Z,7.70
2022-11-02T07:01:14.156Z,10.53
2022-11-02T07:08:29.767Z,8.53
2022-11-02T07:11:15.724Z,11.67
2022-11-02T07:14:06.436Z,7.90
2022-11-02T07:20:36.047Z,8.03
2022-11-02T07:23:10.802Z,8.60
2022-11-02T07:26:09.741Z,13.03
2022-11-02T07:28:59.343Z,8.97
2022-11-02T07:32:02.994Z,8.43
2022-11-02T07:34:47.979Z,9.20
2022-11-02T07:38:12.851Z,9.87
2022-11-02T07:41:12.503Z,7.87
2022-11-02T07:44:23.841Z,8.67
2022-11-02T07:47:10.410Z,6.57
2022-11-02T07:49:48.446Z,9.07
2022-11-02T07:52:20.986Z,7.90
2022-11-02T07:55:14.877Z,6.23
2022-11-02T07:58:08.473Z,9.13
2022-11-02T08:00:53.839Z,8.30
2022-11-02T08:38:08.074Z,6.27
2022-11-02T08:45:11.032Z,7.43
2022-11-02T08:48:38.727Z,8.77
2022-11-02T08:51:30.882Z,8.80
2022-11-02T08:54:29.168Z,10.77
2022-11-02T09:01:09.897Z,9.67
2022-11-02T09:08:41.567Z,11.03
2022-11-02T09:14:18.478Z,7.83
2022-11-02T09:16:53.461Z,4.47
2022-11-02T09:19:28.088Z,6.83
2022-11-02T09:25:31.032Z,6.63
2022-11-02T09:31:14.569Z,8.97
2022-11-02T09:34:05.233Z,6.17
2022-11-02T09:44:21.293Z,9.40
2022-11-02T09:48:10.912Z,8.97
2022-11-02T09:50:18.063Z,9.57
2022-11-02T09:53:45.531Z,10.87
2022-11-02T09:57:10.195Z,9.70
2022-11-02T10:00:22.004Z,10.43
2022-11-02T10:18:47.202Z,16.80
2022-11-02T10:22:56.178Z,9.93
2022-11-02T10:25:23.850Z,10.10
2022-11-02T10:31:56.118Z,14.13
2022-11-02T10:38:19.137Z,10.27
2022-11-02T10:42:04.386Z,9.60
2022-11-02T10:45:00.270Z,11.80
2022-11-02T10:47:58.094Z,12.70
2022-11-02T10:51:09.228Z,10.03
2022-11-02T11:24:57.738Z,9.27
2022-11-02T11:30:58.295Z,11.90
2022-11-02T11:33:18.678Z,10.87
2022-11-02T11:36:19.463Z,9.57
2022-11-02T11:39:06.128Z,11.50
2022-11-02T12:04:49.637Z,10.17
2022-11-02T12:07:55.974Z,8.40
2022-11-02T12:11:18.896Z,8.10
2022-11-02T12:15:12.716Z,8.87
2022-11-02T12:29:37.298Z,8.40
2022-11-02T12:37:40.337Z,10.20
2022-11-02T12:40:29.920Z,11.80
2022-11-02T12:43:13.991Z,5.80
2022-11-02T12:45:51.601Z,9.50
2022-11-02T12:48:34.045Z,6.53
2022-11-02T12:51:11.585Z,10.30
2022-11-02T12:54:28.434Z,9.50
2022-11-02T12:57:21.625Z,9.13
2022-11-02T13:00:36.099Z,9.97
2022-11-02T13:08:32.899Z,9.47
2022-11-02T13:11:26.846Z,8.23
2022-11-02T13:14:22.517Z,6.97
2022-11-02T13:17:11.918Z,8.13
2022-11-02T13:19:53.892Z,10.20
2022-11-02T13:23:28.000Z,8.67
2022-11-02T13:26:57.390Z,7.07
2022-11-02T13:35:15.158Z,9.20
2022-11-02T13:54:48.944Z,7.93
2022-11-02T14:01:46.825Z,8.13
2022-11-02T14:05:33.708Z,8.20
2022-11-02T14:13:51.038Z,6.90
2022-11-02T14:17:19.439Z,6.07
2022-11-02T14:19:56.550Z,6.57
2022-11-02T14:22:38.422Z,6.30
2022-11-02T14:30:02.426Z,6.17
2022-11-02T14:33:02.892Z,5.57
2022-11-02T14:35:58.599Z,8.07
2022-11-02T14:39:26.461Z,9.10
2022-11-02T14:44:07.824Z,7.93
2022-11-02T14:51:24.881Z,8.13
2022-11-02T15:00:07.277Z,5.60
2022-11-02T15:02:42.026Z,8.33
2022-11-02T15:05:28.837Z,5.70
2022-11-02T15:08:08.705Z,5.13
2022-11-02T15:10:41.086Z,6.97
2022-11-02T15:13:47.887Z,7.60
2022-11-02T15:16:18.114Z,9.37
2022-11-02T15:18:48.155Z,6.00
2022-11-02T15:21:29.888Z,6.87
2022-11-02T15:24:20.145Z,6.73
2022-11-02T15:26:53.887Z,12.07
2022-11-02T15:29:37.150Z,7.50
2022-11-02T15:32:09.911Z,7.80
2022-11-02T15:34:42.890Z,7.90
2022-11-02T15:37:17.924Z,7.07
2022-11-02T15:39:51.721Z,8.57
2022-11-02T15:42:47.673Z,8.53
2022-11-02T15:45:59.374Z,7.83
2022-11-02T17:10:18.972Z,4.80
2022-11-02T17:15:23.467Z,6.73
2022-11-02T23:02:54.524Z,8.23
2022-11-02T23:05:24.454Z,6.23
